createdAt,value
2022-11-23T00:02:26.189Z,96481.88
2022-11-23T00:06:28.399Z,96478.72
2022-11-23T00:10:30.374Z,96484.94
2022-11-23T00:14:32.599Z,96486.75
2022-11-23T00:18:34.894Z,96475.59
2022-11-23T00:22:36.889Z,96482.00
2022-11-23T00:26:39.176Z,96478.78
2022-11-23T00:30:41.209Z,96462.34
2022-11-23T00:34:43.693Z,96475.34
2022-11-23T00:38:46.058Z,96473.75
2022-11-23T00:42:48.059Z,96467.41
2022-11-23T00:46:50.107Z,96465.66
2022-11-23T00:50:52.119Z,96469.00
2022-11-23T00:54:54.136Z,96464.66
2022-11-23T00:58:58.564Z,96467.94
2022-11-23T01:03:01.153Z,96474.66
2022-11-23T01:07:04.253Z,96478.66
2022-11-23T01:11:10.430Z,96474.06
2022-11-23T01:15:12.447Z,96472.06
2022-11-23T01:19:17.797Z,96476.25
2022-11-23T01:23:23.002Z,96478.81
2022-11-23T01:27:25.038Z,96475.13
2022-11-23T01:31:27.336Z,96483.69
2022-11-23T01:35:29.447Z,96487.97
2022-11-23T01:39:31.732Z,96474.09
2022-11-23T01:43:34.072Z,96482.94
2022-11-23T01:47:37.268Z,96493.56
2022-11-23T01:51:44.500Z,96503.13
2022-11-23T01:55:47.972Z,96492.72
2022-11-23T01:59:51.426Z,96499.75
2022-11-23T02:03:56.453Z,96501.75
2022-11-23T02:08:00.578Z,96506.13
2022-11-23T02:12:02.590Z,96504.34
2022-11-23T02:16:04.787Z,96499.06
2022-11-23T02:20:17.550Z,96508.66
2022-11-23T02:24:33.547Z,96504.97
2022-11-23T02:28:41.152Z,96509.09
2022-11-23T02:32:44.039Z,96503.13
2022-11-23T02:36:55.033Z,96494.41
2022-11-23T02:40:57.613Z,96489.22
2022-11-23T02:45:15.765Z,96486.50
2022-11-23T02:49:17.766Z,96494.41
2022-11-23T02:53:19.779Z,96490.97
2022-11-23T02:57:21.807Z,96492.56
2022-11-23T03:01:23.962Z,96488.13
2022-11-23T03:05:26.526Z,96488.88
2022-11-23T03:09:28.610Z,96478.47
2022-11-23T03:13:31.775Z,96481.22
2022-11-23T03:17:35.582Z,96472.47
2022-11-23T03:21:37.927Z,96477.69
2022-11-23T03:25:42.690Z,96487.09
2022-11-23T03:29:45.705Z,96491.63
2022-11-23T03:33:53.035Z,96489.88
2022-11-23T03:37:55.043Z,96497.69
2022-11-23T03:41:57.066Z,96508.16
2022-11-23T03:46:05.289Z,96504.81
2022-11-23T03:50:07.850Z,96502.38
2022-11-23T03:54:10.039Z,96505.72
2022-11-23T03:58:13.596Z,96501.44
2022-11-23T04:02:16.693Z,96504.38
2022-11-23T04:06:26.830Z,96508.72
2022-11-23T04:10:35.934Z,96496.91
2022-11-23T04:14:47.794Z,96505.59
2022-11-23T04:18:49.846Z,96501.63
2022-11-23T04:22:52.143Z,96504.22
2022-11-23T04:26:54.299Z,96510.25
2022-11-23T04:30:58.694Z,96505.88
2022-11-23T04:35:03.775Z,96507.72
2022-11-23T04:39:07.299Z,96510.25
2022-11-23T04:43:17.048Z,96516.84
2022-11-23T04:47:19.106Z,96518.22
2022-11-23T04:51:23.005Z,96514.63
2022-11-23T04:55:26.130Z,96507.50
2022-11-23T04:59:32.530Z,96502.38
2022-11-23T05:03:35.076Z,96494.56
2022-11-23T05:07:39.568Z,96501.75
2022-11-23T05:11:41.863Z,96508.66
2022-11-23T05:15:45.333Z,96511.19
2022-11-23T05:19:51.840Z,96504.13
2022-11-23T05:23:54.924Z,96509.31
2022-11-23T05:27:57.107Z,96509.09
2022-11-23T05:31:59.268Z,96512.53
2022-11-23T05:36:01.532Z,96512.53
2022-11-23T05:40:12.287Z,96502.22
2022-11-23T05:44:14.537Z,96506.66
2022-11-23T05:48:16.846Z,96518.13
2022-11-23T05:52:31.822Z,96519.38
2022-11-23T05:56:37.367Z,96529.06
2022-11-23T06:00:48.305Z,96517.75
2022-11-23T06:04:52.221Z,96516.84
2022-11-23T06:09:00.516Z,96516.00
2022-11-23T06:13:04.677Z,96521.38
2022-11-23T06:17:07.834Z,96530.03
2022-11-23T06:21:18.227Z,96523.13
2022-11-23T06:25:21.271Z,96531.16
2022-11-23T06:29:34.392Z,96526.78
2022-11-23T06:33:36.851Z,96530.25
2022-11-23T06:37:38.892Z,96532.47
2022-11-23T06:41:41.214Z,96536.59
2022-11-23T06:45:44.683Z,96538.19
2022-11-23T06:49:49.804Z,96534.78
2022-11-23T06:54:00.577Z,96545.09
2022-11-23T06:58:02.819Z,96551.13
2022-11-23T07:02:05.093Z,96559.63
2022-11-23T07:06:11.149Z,96558.56
2022-11-23T07:10:13.895Z,96555.91
2022-11-23T07:14:21.115Z,96561.44
2022-11-23T07:18:26.552Z,96559.91
2022-11-23T07:22:33.726Z,96557.47
2022-11-23T07:26:35.753Z,96558.41
2022-11-23T07:30:39.719Z,96554.19
2022-11-23T07:34:41.793Z,96567.97
2022-11-23T07:38:44.305Z,96571.19
2022-11-23T07:42:48.556Z,96570.19
2022-11-23T07:46:53.757Z,96572.88
2022-11-23T07:50:55.772Z,96578.75
2022-11-23T07:54:57.859Z,96574.00
2022-11-23T07:58:59.854Z,96579.13
2022-11-23T08:03:26.799Z,96579.81
2022-11-23T08:07:24.084Z,96566.66
2022-11-23T08:11:26.104Z,96573.50
2022-11-23T08:15:28.140Z,96576.69
2022-11-23T08:19:30.163Z,96582.69
2022-11-23T08:23:32.311Z,96586.81
2022-11-23T08:27:34.316Z,96599.28
2022-11-23T08:31:36.375Z,96598.97
2022-11-23T08:35:40.844Z,96602.03
2022-11-23T08:39:42.902Z,96607.25
2022-11-23T08:43:44.903Z,96608.78
2022-11-23T08:47:47.208Z,96609.75
2022-11-23T08:51:50.409Z,96611.44
2022-11-23T08:55:52.537Z,96609.69
2022-11-23T08:59:54.736Z,96607.88
2022-11-23T09:03:56.731Z,96611.22
2022-11-23T09:08:02.327Z,96607.63
2022-11-23T09:12:04.880Z,96601.59
2022-11-23T09:16:07.509Z,96596.56
2022-11-23T09:20:10.610Z,96597.97
2022-11-23T09:24:13.126Z,96600.41
2022-11-23T09:28:19.634Z,96605.63
2022-11-23T09:32:21.664Z,96606.53
2022-11-23T09:36:24.050Z,96599.56
2022-11-23T09:40:32.596Z,96599.31
2022-11-23T09:44:57.967Z,96599.00
2022-11-23T09:49:10.582Z,96606.94
2022-11-23T09:53:18.386Z,96597.16
2022-11-23T09:57:26.630Z,96598.56
2022-11-23T10:01:30.399Z,96593.09
2022-11-23T10:05:38.334Z,96603.22
2022-11-23T10:09:52.265Z,96601.03
2022-11-23T10:14:13.294Z,96604.06
2022-11-23T10:18:15.271Z,96603.91
2022-11-23T10:22:26.527Z,96599.16
2022-11-23T10:26:32.648Z,96592.06
2022-11-23T10:30:34.977Z,96597.25
2022-11-23T10:34:56.911Z,96589.75
2022-11-23T10:39:00.609Z,96585.38
2022-11-23T10:43:11.897Z,96597.84
2022-11-23T10:47:34.254Z,96590.44
2022-11-23T10:51:37.750Z,96579.78
2022-11-23T10:56:11.739Z,96577.47
2022-11-23T11:00:17.885Z,96578.34
2022-11-23T11:04:25.650Z,96579.59
2022-11-23T11:08:33.525Z,96572.19
2022-11-23T11:12:35.699Z,96569.28
2022-11-23T11:16:38.614Z,96562.53
2022-11-23T11:20:45.050Z,96561.94
2022-11-23T11:24:47.317Z,96559.75
2022-11-23T11:28:54.524Z,96544.63
2022-11-23T11:33:04.542Z,96544.16
2022-11-23T11:37:18.940Z,96537.84
2022-11-23T11:41:25.355Z,96530.00
2022-11-23T11:45:37.337Z,96527.94
2022-11-23T11:49:47.268Z,96526.59
2022-11-23T11:54:14.245Z,96520.41
2022-11-23T11:58:17.909Z,96518.09
2022-11-23T12:02:49.027Z,96508.03
2022-11-23T12:07:04.953Z,96508.28
2022-11-23T12:11:11.704Z,96505.09
2022-11-23T12:20:09.769Z,96493.31
2022-11-23T12:24:32.677Z,96492.28
2022-11-23T12:28:58.699Z,96486.00
2022-11-23T12:33:12.265Z,96485.69
2022-11-23T12:37:23.410Z,96481.13
2022-11-23T12:41:49.531Z,96484.66
2022-11-23T12:46:10.368Z,96488.69
2022-11-23T12:50:27.350Z,96474.13
2022-11-23T12:55:00.590Z,96470.72
2022-11-23T12:59:03.879Z,96475.63
2022-11-23T13:03:22.157Z,96466.53
2022-11-23T13:08:02.029Z,96468.13
2022-11-23T13:12:36.365Z,96458.06
2022-11-23T13:17:18.794Z,96468.53
2022-11-23T13:21:40.903Z,96460.78
2022-11-23T13:25:43.145Z,96458.25
2022-11-23T13:29:51.420Z,96466.28
2022-11-23T13:34:01.956Z,96467.41
2022-11-23T13:38:25.445Z,96448.34
2022-11-23T13:42:31.106Z,96456.19
2022-11-23T13:46:35.742Z,96439.94
2022-11-23T13:50:40.890Z,96433.34
2022-11-23T13:54:54.803Z,96431.75
2022-11-23T13:58:59.816Z,96429.41
2022-11-23T14:03:39.621Z,96423.75
2022-11-23T14:07:46.252Z,96410.97
2022-11-23T14:11:59.040Z,96393.69
2022-11-23T14:16:04.062Z,96397.34
2022-11-23T14:20:24.771Z,96415.91
2022-11-23T14:24:42.860Z,96410.19
2022-11-23T14:29:06.210Z,96401.91
2022-11-23T14:33:26.246Z,96390.31
2022-11-23T14:37:43.204Z,96397.88
2022-11-23T14:41:49.965Z,96404.63
2022-11-23T14:45:52.797Z,96391.19
2022-11-23T14:49:54.972Z,96394.47
2022-11-23T14:54:00.126Z,96387.25
2022-11-23T14:58:05.379Z,96397.28
2022-11-23T15:02:20.188Z,96385.63
2022-11-23T15:06:27.131Z,96397.41
2022-11-23T15:11:02.950Z,96399.78
2022-11-23T15:15:26.134Z,96396.91
2022-11-23T15:19:29.753Z,96400.78
2022-11-23T15:23:38.519Z,96401.31
2022-11-23T15:27:41.928Z,96410.53
2022-11-23T15:32:07.020Z,96406.59
2022-11-23T15:36:06.654Z,96413.06
2022-11-23T15:40:13.456Z,96424.81
2022-11-23T15:44:27.646Z,96429.53
2022-11-23T15:48:35.371Z,96424.66
2022-11-23T15:52:38.115Z,96418.75
2022-11-23T15:56:44.548Z,96422.28
2022-11-23T16:00:53.394Z,96420.22
2022-11-23T16:05:11.167Z,96420.09
2022-11-23T16:09:55.484Z,96421.13
2022-11-23T16:14:34.479Z,96419.69
2022-11-23T16:18:36.616Z,96414.53
2022-11-23T16:22:40.709Z,96424.81
2022-11-23T16:26:43.813Z,96426.16
2022-11-23T16:30:49.015Z,96436.84
2022-11-23T16:34:52.187Z,96448.19
2022-11-23T16:38:56.338Z,96450.22
2022-11-23T16:43:00.729Z,96465.19
2022-11-23T16:47:22.924Z,96468.25
2022-11-23T16:51:25.240Z,96469.56
2022-11-23T16:55:27.303Z,96479.72
2022-11-23T16:59:29.309Z,96487.34
2022-11-23T17:03:33.241Z,96491.66
2022-11-23T17:07:35.318Z,96495.94
2022-11-23T17:11:44.710Z,96496.75
2022-11-23T17:15:46.887Z,96498.19
2022-11-23T17:19:50.204Z,96499.69
2022-11-23T17:23:52.240Z,96508.03
2022-11-23T17:27:54.287Z,96518.22
2022-11-23T17:31:56.343Z,96524.88
2022-11-23T17:35:59.826Z,96526.44
2022-11-23T17:40:01.793Z,96528.22
2022-11-23T17:44:04.051Z,96527.31
2022-11-23T17:48:06.265Z,96546.22
2022-11-23T17:52:11.312Z,96549.03
2022-11-23T17:56:19.467Z,96567.47
2022-11-23T18:00:23.329Z,96584.38
2022-11-23T18:04:25.298Z,96584.44
2022-11-23T18:08:27.383Z,96595.13
2022-11-23T18:12:29.657Z,96591.25
2022-11-23T18:16:31.853Z,96596.09
2022-11-23T18:20:34.236Z,96604.19
2022-11-23T18:24:36.276Z,96603.66
2022-11-23T18:28:38.282Z,96621.59
2022-11-23T18:32:40.350Z,96620.41
2022-11-23T18:36:42.444Z,96622.41
2022-11-23T18:40:44.446Z,96627.31
2022-11-23T18:44:46.497Z,96620.06
2022-11-23T18:48:50.242Z,96628.03
2022-11-23T18:52:52.193Z,96629.03
2022-11-23T18:56:54.198Z,96637.75
2022-11-23T19:00:56.676Z,96634.53
2022-11-23T19:04:58.698Z,96648.81
2022-11-23T19:09:02.905Z,96650.47
2022-11-23T19:13:06.095Z,96660.81
2022-11-23T19:17:08.620Z,96656.38
2022-11-23T19:21:21.931Z,96664.09
2022-11-23T19:25:24.826Z,96665.81
2022-11-23T19:29:28.505Z,96677.28
2022-11-23T19:33:30.474Z,96682.34
2022-11-23T19:37:35.452Z,96689.09
2022-11-23T19:41:37.534Z,96691.41
2022-11-23T19:45:39.739Z,96690.31
2022-11-23T19:49:41.721Z,96697.06
2022-11-23T19:53:45.178Z,96703.97
2022-11-23T19:57:47.181Z,96701.38
2022-11-23T20:01:49.396Z,96729.13
2022-11-23T20:06:00.046Z,96731.63
2022-11-23T20:10:02.086Z,96730.66
2022-11-23T20:14:04.742Z,96741.75
2022-11-23T20:18:06.730Z,96745.81
2022-11-23T20:22:08.744Z,96751.03
2022-11-23T20:26:14.584Z,96761.31
2022-11-23T20:30:16.615Z,96771.72
2022-11-23T20:34:22.974Z,96780.16
2022-11-23T20:38:27.244Z,96772.91
2022-11-23T20:42:29.264Z,96778.13
2022-11-23T20:50:54.961Z,96802.09
2022-11-23T20:54:56.996Z,96798.75
2022-11-23T20:59:04.040Z,96806.06
2022-11-23T21:03:06.026Z,96806.69
2022-11-23T21:07:08.233Z,96816.00
2022-11-23T21:11:33.669Z,96820.28
2022-11-23T21:15:35.683Z,96822.81
2022-11-23T21:19:39.539Z,96833.03
2022-11-23T21:23:41.587Z,96830.00
2022-11-23T21:27:43.653Z,96839.06
2022-11-23T21:31:47.394Z,96848.25
2022-11-23T21:35:49.725Z,96859.97
2022-11-23T21:39:53.226Z,96862.03
2022-11-23T21:43:55.401Z,96876.94
2022-11-23T21:47:57.472Z,96878.72
2022-11-23T21:51:59.740Z,96882.44
2022-11-23T21:56:04.380Z,96888.53
2022-11-23T22:00:07.256Z,96893.75
2022-11-23T22:04:15.408Z,96901.06
2022-11-23T22:08:33.097Z,96903.66
2022-11-23T22:12:35.178Z,96906.31
2022-11-23T22:16:39.915Z,96916.25
2022-11-23T22:20:42.076Z,96922.88
2022-11-23T22:24:44.135Z,96927.44
2022-11-23T22:28:51.280Z,96930.81
2022-11-23T22:32:53.303Z,96930.53
2022-11-23T22:36:55.280Z,96946.50
2022-11-23T22:40:57.325Z,96945.94
2022-11-23T22:44:59.338Z,96958.16
2022-11-23T22:49:01.871Z,96953.13
2022-11-23T22:53:03.976Z,96965.44
2022-11-23T22:57:05.996Z,96973.59
2022-11-23T23:01:14.684Z,96978.47
2022-11-23T23:05:16.793Z,96978.47
2022-11-23T23:09:18.945Z,96993.28
2022-11-23T23:13:21.890Z,96992.06
2022-11-23T23:17:23.993Z,96993.63
2022-11-23T23:21:28.171Z,97005.41
2022-11-23T23:25:30.596Z,97015.88
2022-11-23T23:29:32.602Z,97006.41
2022-11-23T23:33:34.956Z,97016.03
2022-11-23T23:37:37.161Z,97023.69
2022-11-23T23:41:39.198Z,97027.69
2022-11-23T23:45:41.296Z,97028.28
2022-11-23T23:49:43.293Z,97030.97
2022-11-23T23:53:46.211Z,97031.09
2022-11-23T23:57:48.309Z,97028.94
